createdAt,value
2018-11-23T00:01:12.875Z,95594.77
2018-11-23T00:03:39.214Z,95594.66
2018-11-23T00:06:05.562Z,95590.54
2018-11-23T00:08:31.897Z,95592.73
2018-11-23T00:10:58.217Z,95592.93
2018-11-23T00:13:24.542Z,95598.06
2018-11-23T00:15:50.932Z,95604.65
2018-11-23T00:18:17.270Z,95604.83
2018-11-23T00:20:43.629Z,95600.25
2018-11-23T00:23:10.003Z,95601.43
2018-11-23T00:25:36.325Z,95596.75
2018-11-23T00:28:02.758Z,95605.83
2018-11-23T00:30:29.123Z,95606.66
2018-11-23T00:32:55.416Z,95612.97
2018-11-23T00:35:21.750Z,95615.98
2018-11-23T00:37:48.100Z,95611.48
2018-11-23T00:40:14.569Z,95620.56
2018-11-23T00:42:40.898Z,95622.50
2018-11-23T00:45:07.216Z,95619.18
2018-11-23T00:47:33.535Z,95620.26
2018-11-23T00:49:59.865Z,95619.35
2018-11-23T00:52:26.270Z,95624.80
2018-11-23T00:54:52.650Z,95621.98
2018-11-23T00:57:18.982Z,95625.38
2018-11-23T00:59:45.310Z,95627.12
2018-11-23T01:02:11.695Z,95629.75
2018-11-23T01:04:38.027Z,95634.16
2018-11-23T01:07:04.384Z,95634.98
2018-11-23T01:09:30.735Z,95633.42
2018-11-23T01:11:58.149Z,95638.91
2018-11-23T01:14:24.481Z,95635.16
2018-11-23T01:16:50.870Z,95637.73
2018-11-23T01:19:17.207Z,95635.16
2018-11-23T01:21:43.530Z,95638.63
2018-11-23T01:24:09.864Z,95641.19
2018-11-23T01:26:36.191Z,95642.27
2018-11-23T01:29:02.519Z,95642.09
2018-11-23T01:31:28.857Z,95650.62
2018-11-23T01:33:55.226Z,95646.88
2018-11-23T01:36:21.553Z,95648.16
2018-11-23T01:38:48.011Z,95645.00
2018-11-23T01:41:14.362Z,95643.92
2018-11-23T01:43:40.692Z,95641.91
2018-11-23T01:46:07.095Z,95638.97
2018-11-23T01:48:33.413Z,95635.64
2018-11-23T01:50:59.795Z,95637.30
2018-11-23T01:53:26.126Z,95633.08
2018-11-23T01:55:52.457Z,95638.59
2018-11-23T01:58:18.829Z,95643.61
2018-11-23T02:00:45.174Z,95645.72
2018-11-23T02:03:11.507Z,95643.98
2018-11-23T02:05:37.846Z,95648.47
2018-11-23T02:08:04.159Z,95653.92
2018-11-23T02:10:30.536Z,95644.24
2018-11-23T02:12:56.958Z,95646.70
2018-11-23T02:15:23.324Z,95644.20
2018-11-23T02:17:49.663Z,95638.95
2018-11-23T02:20:16.004Z,95649.94
2018-11-23T02:22:42.371Z,95649.20
2018-11-23T02:25:08.734Z,95646.93
2018-11-23T02:27:35.047Z,95647.00
2018-11-23T02:30:01.378Z,95647.38
2018-11-23T02:32:27.707Z,95647.38
2018-11-23T02:34:54.034Z,95649.11
2018-11-23T02:37:20.381Z,95657.56
2018-11-23T02:39:46.720Z,95655.90
2018-11-23T02:42:13.085Z,95660.02
2018-11-23T02:44:39.385Z,95662.20
2018-11-23T02:47:05.766Z,95661.23
2018-11-23T02:49:32.118Z,95657.84
2018-11-23T02:51:58.448Z,95654.73
2018-11-23T02:54:24.827Z,95659.86
2018-11-23T02:56:51.212Z,95656.56
2018-11-23T02:59:17.624Z,95656.84
2018-11-23T03:01:44.056Z,95662.36
2018-11-23T03:04:10.406Z,95665.75
2018-11-23T03:06:36.721Z,95660.62
2018-11-23T03:09:03.078Z,95664.30
2018-11-23T03:11:29.416Z,95663.02
2018-11-23T03:13:55.754Z,95668.14
2018-11-23T03:16:22.148Z,95666.03
2018-11-23T03:18:48.543Z,95662.19
2018-11-23T03:21:14.834Z,95673.60
2018-11-23T03:23:41.231Z,95673.84
2018-11-23T03:26:07.551Z,95672.55
2018-11-23T03:28:33.882Z,95678.34
2018-11-23T03:31:00.352Z,95682.26
2018-11-23T03:33:26.694Z,95683.19
2018-11-23T03:35:53.028Z,95680.70
2018-11-23T03:38:19.355Z,95676.95
2018-11-23T03:40:45.796Z,95683.03
2018-11-23T03:43:12.216Z,95682.80
2018-11-23T03:45:38.518Z,95681.98
2018-11-23T03:48:04.868Z,95681.42
2018-11-23T03:50:31.207Z,95680.70
2018-11-23T03:52:57.533Z,95682.88
2018-11-23T03:55:23.867Z,95680.63
2018-11-23T03:57:52.436Z,95679.36
2018-11-23T04:00:18.763Z,95679.06
2018-11-23T04:02:45.085Z,95682.19
2018-11-23T04:05:11.408Z,95675.16
2018-11-23T04:07:37.779Z,95673.55
2018-11-23T04:10:04.200Z,95677.05
2018-11-23T04:12:30.503Z,95676.44
2018-11-23T04:14:56.832Z,95677.38
2018-11-23T04:17:23.188Z,95681.42
2018-11-23T04:19:49.527Z,95685.97
2018-11-23T04:22:15.862Z,95687.36
2018-11-23T04:24:42.191Z,95686.11
2018-11-23T04:27:08.517Z,95696.20
2018-11-23T04:29:34.829Z,95692.77
2018-11-23T04:32:01.203Z,95686.17
2018-11-23T04:34:27.507Z,95691.30
2018-11-23T04:36:53.904Z,95688.39
2018-11-23T04:39:20.252Z,95683.27
2018-11-23T04:41:46.689Z,95686.00
2018-11-23T04:44:13.017Z,95684.23
2018-11-23T04:46:39.346Z,95684.62
2018-11-23T04:49:05.684Z,95681.04
2018-11-23T04:51:32.023Z,95684.64
2018-11-23T04:53:58.402Z,95685.72
2018-11-23T04:56:24.731Z,95687.48
2018-11-23T04:58:51.054Z,95683.36
2018-11-23T05:01:17.459Z,95691.99
2018-11-23T05:03:43.744Z,95699.62
2018-11-23T05:06:10.121Z,95700.42
2018-11-23T05:08:36.500Z,95703.36
2018-11-23T05:11:02.938Z,95710.61
2018-11-23T05:13:29.327Z,95708.14
2018-11-23T05:15:55.663Z,95704.30
2018-11-23T05:18:22.054Z,95709.42
2018-11-23T05:20:48.376Z,95705.23
2018-11-23T05:23:14.718Z,95714.11
2018-11-23T05:25:41.060Z,95718.44
2018-11-23T05:28:07.426Z,95721.19
2018-11-23T05:30:33.748Z,95719.17
2018-11-23T05:33:00.088Z,95717.88
2018-11-23T05:35:26.408Z,95721.73
2018-11-23T05:37:52.801Z,95718.27
2018-11-23T05:40:19.209Z,95723.40
2018-11-23T05:42:45.540Z,95720.45
2018-11-23T05:45:11.991Z,95723.49
2018-11-23T05:47:38.406Z,95726.37
2018-11-23T05:50:04.779Z,95728.58
2018-11-23T05:52:31.103Z,95733.89
2018-11-23T05:54:57.428Z,95743.78
2018-11-23T05:57:23.854Z,95741.77
2018-11-23T05:59:50.170Z,95739.76
2018-11-23T06:02:16.551Z,95745.91
2018-11-23T06:04:43.055Z,95748.30
2018-11-23T06:07:09.461Z,95748.95
2018-11-23T06:09:35.726Z,95755.04
2018-11-23T06:12:02.063Z,95752.30
2018-11-23T06:14:28.379Z,95753.95
2018-11-23T06:16:54.714Z,95754.59
2018-11-23T06:19:21.053Z,95759.09
2018-11-23T06:21:47.384Z,95756.80
2018-11-23T06:24:13.710Z,95762.14
2018-11-23T06:26:40.045Z,95760.67
2018-11-23T06:29:06.369Z,95761.30
2018-11-23T06:31:32.770Z,95760.02
2018-11-23T06:33:59.045Z,95769.76
2018-11-23T06:36:25.411Z,95782.52
2018-11-23T06:38:51.744Z,95791.41
2018-11-23T06:41:18.173Z,95787.30
2018-11-23T06:43:44.451Z,95794.09
2018-11-23T06:46:10.775Z,95800.80
2018-11-23T06:48:37.105Z,95803.45
2018-11-23T06:51:03.444Z,95802.26
2018-11-23T06:53:29.782Z,95806.04
2018-11-23T06:55:56.157Z,95809.80
2018-11-23T06:58:22.485Z,95806.98
2018-11-23T07:00:48.941Z,95808.16
2018-11-23T07:03:15.270Z,95808.91
2018-11-23T07:05:44.058Z,95808.63
2018-11-23T07:08:10.402Z,95807.62
2018-11-23T07:10:37.120Z,95812.48
2018-11-23T07:13:03.435Z,95814.66
2018-11-23T07:15:29.821Z,95808.76
2018-11-23T07:17:56.144Z,95802.89
2018-11-23T07:20:22.477Z,95799.77
2018-11-23T07:22:48.800Z,95805.81
2018-11-23T07:25:15.128Z,95810.70
2018-11-23T07:27:41.459Z,95810.97
2018-11-23T07:30:08.012Z,95812.25
2018-11-23T07:32:34.422Z,95821.14
2018-11-23T07:35:00.865Z,95819.78
2018-11-23T07:37:27.200Z,95824.81
2018-11-23T07:39:53.595Z,95829.31
2018-11-23T07:42:20.060Z,95833.37
2018-11-23T07:44:46.473Z,95832.91
2018-11-23T07:47:15.073Z,95837.03
2018-11-23T07:49:41.467Z,95838.25
2018-11-23T07:52:07.931Z,95837.48
2018-11-23T07:54:34.298Z,95829.57
2018-11-23T07:57:00.975Z,95833.55
2018-11-23T07:59:27.315Z,95838.66
2018-11-23T08:01:54.731Z,95848.49
2018-11-23T08:04:21.053Z,95839.89
2018-11-23T08:06:47.379Z,95840.23
2018-11-23T08:09:13.724Z,95847.48
2018-11-23T08:11:40.043Z,95849.39
2018-11-23T08:14:06.364Z,95852.24
2018-11-23T08:16:32.731Z,95858.11
2018-11-23T08:18:59.162Z,95856.47
2018-11-23T08:21:25.499Z,95862.13
2018-11-23T08:23:51.827Z,95865.59
2018-11-23T08:26:18.292Z,95870.20
2018-11-23T08:28:44.700Z,95871.27
2018-11-23T08:31:11.025Z,95867.12
2018-11-23T08:33:37.417Z,95869.55
2018-11-23T08:36:03.793Z,95871.56
2018-11-23T08:38:30.119Z,95872.85
2018-11-23T08:40:56.532Z,95871.31
2018-11-23T08:43:22.874Z,95873.05
2018-11-23T08:45:49.223Z,95872.09
2018-11-23T08:48:15.681Z,95867.73
2018-11-23T08:50:42.039Z,95868.30
2018-11-23T08:53:08.404Z,95867.42
2018-11-23T08:55:34.825Z,95868.69
2018-11-23T08:58:01.291Z,95867.02
2018-11-23T09:00:28.710Z,95861.52
2018-11-23T09:02:55.131Z,95860.38
2018-11-23T09:05:21.520Z,95855.56
2018-11-23T09:07:47.938Z,95856.59
2018-11-23T09:10:14.274Z,95859.75
2018-11-23T09:12:40.719Z,95852.61
2018-11-23T09:15:07.339Z,95853.94
2018-11-23T09:17:33.766Z,95850.32
2018-11-23T09:20:00.500Z,95848.44
2018-11-23T09:22:27.257Z,95845.42
2018-11-23T09:24:53.563Z,95850.74
2018-11-23T09:27:20.021Z,95842.05
2018-11-23T09:29:46.424Z,95839.09
2018-11-23T09:32:12.807Z,95839.14
2018-11-23T09:34:39.085Z,95839.52
2018-11-23T09:37:05.412Z,95834.85
2018-11-23T09:39:34.361Z,95837.72
2018-11-23T09:42:00.684Z,95841.30
2018-11-23T09:44:27.030Z,95848.64
2018-11-23T09:46:53.357Z,95835.42
2018-11-23T09:49:19.706Z,95831.48
2018-11-23T09:51:46.032Z,95836.97
2018-11-23T09:54:12.364Z,95839.42
2018-11-23T09:56:38.764Z,95847.37
2018-11-23T09:59:05.099Z,95841.17
2018-11-23T10:01:31.412Z,95843.92
2018-11-23T10:03:57.747Z,95845.30
2018-11-23T10:06:24.151Z,95845.88
2018-11-23T10:08:50.488Z,95836.22
2018-11-23T10:11:16.827Z,95836.98
2018-11-23T10:13:43.190Z,95839.73
2018-11-23T10:18:42.860Z,95837.53
2018-11-23T10:21:09.252Z,95836.28
2018-11-23T10:23:35.592Z,95839.48
2018-11-23T10:26:01.929Z,95835.56
2018-11-23T10:28:28.433Z,95836.53
2018-11-23T10:30:55.152Z,95829.63
2018-11-23T10:33:21.496Z,95832.41
2018-11-23T10:35:47.812Z,95837.82
2018-11-23T10:38:14.249Z,95831.66
2018-11-23T10:40:40.677Z,95829.13
2018-11-23T10:43:08.022Z,95827.72
2018-11-23T10:45:34.423Z,95830.37
2018-11-23T10:48:00.809Z,95833.50
2018-11-23T11:25:51.198Z,95807.95
2018-11-23T11:28:18.034Z,95811.34
2018-11-23T11:30:44.358Z,95810.89
2018-11-23T11:33:10.696Z,95809.48
2018-11-23T11:35:37.032Z,95807.41
2018-11-23T11:38:03.362Z,95807.91
2018-11-23T11:40:29.693Z,95800.59
2018-11-23T11:42:56.023Z,95809.91
2018-11-23T11:45:22.371Z,95801.46
2018-11-23T11:47:48.718Z,95799.30
2018-11-23T11:50:15.049Z,95796.93
2018-11-23T11:52:41.628Z,95801.80
2018-11-23T11:55:08.909Z,95801.47
2018-11-23T11:57:35.536Z,95795.14
2018-11-23T12:00:01.846Z,95792.43
2018-11-23T12:02:28.207Z,95787.07
2018-11-23T12:04:55.656Z,95789.69
2018-11-23T12:07:21.986Z,95787.32
2018-11-23T12:09:48.567Z,95783.45
2018-11-23T12:12:14.957Z,95781.97
2018-11-23T12:14:41.278Z,95786.70
2018-11-23T12:17:08.739Z,95788.67
2018-11-23T12:19:35.170Z,95796.45
2018-11-23T12:22:01.655Z,95795.31
2018-11-23T12:24:28.189Z,95796.09
2018-11-23T12:26:54.562Z,95804.50
2018-11-23T12:29:20.908Z,95807.30
2018-11-23T12:31:47.384Z,95811.94
2018-11-23T12:34:13.784Z,95804.94
2018-11-23T12:36:40.103Z,95802.20
2018-11-23T12:39:06.433Z,95807.42
2018-11-23T12:41:32.820Z,95808.05
2018-11-23T12:43:59.176Z,95809.05
2018-11-23T12:46:26.146Z,95809.05
2018-11-23T12:48:52.504Z,95811.42
2018-11-23T12:51:18.862Z,95810.84
2018-11-23T12:53:45.266Z,95804.52
2018-11-23T12:56:11.705Z,95809.92
2018-11-23T12:58:38.123Z,95811.67
2018-11-23T13:01:04.460Z,95809.46
2018-11-23T13:03:30.904Z,95805.38
2018-11-23T13:05:57.341Z,95811.09
2018-11-23T13:08:23.708Z,95804.11
2018-11-23T13:10:50.022Z,95807.46
2018-11-23T13:13:16.529Z,95799.01
2018-11-23T13:15:43.024Z,95805.59
2018-11-23T13:18:09.409Z,95803.87
2018-11-23T13:20:35.809Z,95810.88
2018-11-23T13:23:02.180Z,95813.45
2018-11-23T13:25:28.615Z,95804.08
2018-11-23T13:27:55.905Z,95803.19
2018-11-23T13:30:22.263Z,95801.84
2018-11-23T13:32:48.635Z,95802.23
2018-11-23T13:35:15.097Z,95803.04
2018-11-23T13:37:41.573Z,95798.12
2018-11-23T13:40:07.922Z,95800.36
2018-11-23T13:42:34.423Z,95797.29
2018-11-23T13:45:00.862Z,95792.03
2018-11-23T13:47:27.264Z,95790.84
2018-11-23T13:49:53.616Z,95786.87
2018-11-23T13:52:20.286Z,95786.02
2018-11-23T13:54:46.664Z,95792.92
2018-11-23T13:57:13.127Z,95789.89
2018-11-23T13:59:39.601Z,95785.64
2018-11-23T14:02:06.007Z,95787.73
2018-11-23T14:04:32.361Z,95788.25
2018-11-23T14:06:59.717Z,95780.27
2018-11-23T14:09:26.092Z,95785.06
2018-11-23T14:11:52.516Z,95788.93
2018-11-23T14:14:18.845Z,95788.93
2018-11-23T14:16:45.175Z,95792.25
2018-11-23T14:19:12.139Z,95781.92
2018-11-23T14:21:38.408Z,95787.39
2018-11-23T14:24:04.806Z,95790.56
2018-11-23T14:26:31.154Z,95794.59
2018-11-23T14:28:58.011Z,95794.80
2018-11-23T14:31:24.510Z,95795.72
2018-11-23T14:33:50.899Z,95788.23
2018-11-23T14:36:17.199Z,95785.89
2018-11-23T14:38:43.521Z,95786.26
2018-11-23T14:41:09.884Z,95789.86
2018-11-23T14:43:36.290Z,95792.68
2018-11-23T14:46:02.696Z,95797.94
2018-11-23T14:48:29.051Z,95801.72
2018-11-23T14:50:55.442Z,95796.83
2018-11-23T14:53:21.789Z,95794.73
2018-11-23T14:55:48.176Z,95792.59
2018-11-23T14:58:16.826Z,95796.77
2018-11-23T15:00:43.155Z,95796.03
2018-11-23T15:03:09.551Z,95801.43
2018-11-23T15:05:35.938Z,95798.16
2018-11-23T15:08:02.262Z,95802.61
2018-11-23T15:10:28.701Z,95806.12
2018-11-23T15:12:56.128Z,95803.65
2018-11-23T15:15:22.483Z,95808.23
2018-11-23T15:17:48.999Z,95809.48
2018-11-23T15:20:15.428Z,95812.34
2018-11-23T15:22:42.140Z,95819.47
2018-11-23T15:25:08.581Z,95820.21
2018-11-23T15:27:35.026Z,95825.30
2018-11-23T15:30:03.549Z,95823.92
2018-11-23T15:32:27.787Z,95817.50
2018-11-23T15:34:54.223Z,95814.01
2018-11-23T15:37:20.630Z,95820.70
2018-11-23T15:39:48.133Z,95827.11
2018-11-23T15:42:14.523Z,95837.90
2018-11-23T15:44:40.853Z,95833.45
2018-11-23T15:47:07.495Z,95827.37
2018-11-23T15:49:33.873Z,95829.00
2018-11-23T15:52:00.255Z,95840.77
2018-11-23T15:54:26.787Z,95837.73
2018-11-23T15:56:53.157Z,95836.27
2018-11-23T15:59:19.513Z,95832.03
2018-11-23T16:01:45.850Z,95826.67
2018-11-23T16:04:12.242Z,95826.95
2018-11-23T16:06:38.669Z,95832.03
2018-11-23T16:09:05.106Z,95838.27
2018-11-23T16:11:31.721Z,95842.55
2018-11-23T16:13:57.970Z,95842.91
2018-11-23T16:16:24.366Z,95843.21
2018-11-23T16:18:50.702Z,95853.42
2018-11-23T16:21:17.135Z,95854.70
2018-11-23T16:23:43.465Z,95856.16
2018-11-23T16:26:09.794Z,95856.66
2018-11-23T16:28:36.238Z,95858.66
2018-11-23T16:31:02.668Z,95853.27
2018-11-23T16:35:55.079Z,95859.85
2018-11-23T16:38:21.468Z,95856.91
2018-11-23T16:40:47.817Z,95855.61
2018-11-23T16:43:14.151Z,95853.41
2018-11-23T16:45:40.477Z,95856.34
2018-11-23T16:48:06.809Z,95862.61
2018-11-23T16:50:33.140Z,95859.94
2018-11-23T16:52:59.487Z,95860.33
2018-11-23T16:55:25.965Z,95860.38
2018-11-23T16:57:52.316Z,95866.13
2018-11-23T17:00:18.722Z,95869.25
2018-11-23T17:02:45.137Z,95870.27
2018-11-23T17:05:11.533Z,95872.03
2018-11-23T17:07:37.870Z,95874.34
2018-11-23T17:10:04.190Z,95869.37
2018-11-23T17:12:30.585Z,95870.47
2018-11-23T17:14:56.923Z,95867.64
2018-11-23T17:17:23.297Z,95867.34
2018-11-23T17:19:49.616Z,95868.09
2018-11-23T17:22:15.947Z,95867.44
2018-11-23T17:24:42.284Z,95869.54
2018-11-23T17:27:08.671Z,95869.20
2018-11-23T17:29:35.008Z,95873.59
2018-11-23T17:32:01.349Z,95870.11
2018-11-23T17:34:27.764Z,95870.03
2018-11-23T17:36:54.131Z,95871.02
2018-11-23T17:39:20.536Z,95872.34
2018-11-23T17:41:46.918Z,95875.64
2018-11-23T17:44:13.270Z,95880.06
2018-11-23T17:46:39.762Z,95872.61
2018-11-23T17:49:06.184Z,95875.83
2018-11-23T17:51:32.477Z,95882.90
2018-11-23T17:53:58.798Z,95884.94
2018-11-23T17:56:25.177Z,95875.73
2018-11-23T17:58:51.612Z,95880.88
2018-11-23T18:01:18.088Z,95882.25
2018-11-23T18:03:44.366Z,95884.92
2018-11-23T18:06:10.695Z,95889.41
2018-11-23T18:08:38.975Z,95887.69
2018-11-23T18:11:03.414Z,95881.72
2018-11-23T18:13:29.763Z,95886.68
2018-11-23T18:15:56.148Z,95886.84
2018-11-23T18:18:22.552Z,95887.41
2018-11-23T18:20:48.890Z,95884.56
2018-11-23T18:23:15.425Z,95885.37
2018-11-23T18:25:41.761Z,95887.33
2018-11-23T18:28:08.171Z,95882.53
2018-11-23T18:30:34.533Z,95885.48
2018-11-23T18:33:00.917Z,95884.53
2018-11-23T18:35:27.321Z,95878.94
2018-11-23T18:37:53.706Z,95877.27
2018-11-23T18:40:20.051Z,95875.53
2018-11-23T18:42:46.426Z,95880.41
2018-11-23T18:45:12.746Z,95879.69
2018-11-23T18:47:39.115Z,95882.98
2018-11-23T18:50:05.454Z,95883.92
2018-11-23T18:52:31.808Z,95882.98
2018-11-23T18:54:58.137Z,95880.14
2018-11-23T18:57:24.607Z,95886.02
2018-11-23T18:59:50.944Z,95878.40
2018-11-23T19:02:17.423Z,95880.70
2018-11-23T19:04:43.755Z,95881.05
2018-11-23T19:07:10.152Z,95879.77
2018-11-23T19:09:36.543Z,95880.78
2018-11-23T19:12:02.926Z,95875.26
2018-11-23T19:14:29.248Z,95874.80
2018-11-23T19:16:55.575Z,95877.95
2018-11-23T19:19:21.946Z,95879.61
2018-11-23T19:21:48.288Z,95879.42
2018-11-23T19:24:14.657Z,95885.55
2018-11-23T19:26:40.966Z,95881.70
2018-11-23T19:29:07.299Z,95884.75
2018-11-23T19:31:33.680Z,95881.16
2018-11-23T19:34:00.017Z,95881.70
2018-11-23T19:36:26.359Z,95883.55
2018-11-23T19:38:52.709Z,95886.23
2018-11-23T19:41:19.209Z,95890.24
2018-11-23T19:43:45.586Z,95888.05
2018-11-23T19:46:11.978Z,95885.09
2018-11-23T19:48:38.314Z,95887.22
2018-11-23T19:51:04.829Z,95890.53
2018-11-23T19:53:31.174Z,95896.14
2018-11-23T19:55:57.517Z,95891.36
2018-11-23T19:58:23.846Z,95901.92
2018-11-23T20:00:50.177Z,95894.77
2018-11-23T20:03:16.557Z,95894.28
2018-11-23T20:05:42.943Z,95891.73
2018-11-23T20:08:09.281Z,95899.63
2018-11-23T20:10:35.612Z,95897.69
2018-11-23T20:13:01.944Z,95901.55
2018-11-23T20:15:30.605Z,95895.12
2018-11-23T20:17:56.926Z,95897.31
2018-11-23T20:20:23.343Z,95898.59
2018-11-23T20:22:49.689Z,95895.23
2018-11-23T20:25:16.075Z,95898.37
2018-11-23T20:27:44.807Z,95898.90
2018-11-23T20:30:11.179Z,95898.08
2018-11-23T20:32:37.504Z,95903.20
2018-11-23T20:35:03.905Z,95901.08
2018-11-23T20:37:30.232Z,95900.98
2018-11-23T20:39:56.554Z,95902.87
2018-11-23T20:42:22.899Z,95900.22
2018-11-23T20:44:49.233Z,95897.73
2018-11-23T20:47:15.569Z,95898.63
2018-11-23T20:49:45.851Z,95904.47
2018-11-23T20:52:08.319Z,95910.27
2018-11-23T20:54:34.649Z,95910.55
2018-11-23T20:57:00.995Z,95906.31
2018-11-23T20:59:27.325Z,95904.75
2018-11-23T21:01:54.832Z,95909.67
2018-11-23T21:04:20.058Z,95909.75
2018-11-23T21:06:46.430Z,95908.47
2018-11-23T21:09:12.797Z,95911.97
2018-11-23T21:11:39.081Z,95908.19
2018-11-23T21:14:05.583Z,95904.22
2018-11-23T21:16:31.922Z,95915.33
2018-11-23T21:18:58.245Z,95913.67
2018-11-23T21:21:24.576Z,95916.69
2018-11-23T21:23:50.968Z,95915.50
2018-11-23T21:26:17.341Z,95913.91
2018-11-23T21:28:46.799Z,95911.17
2018-11-23T21:31:13.161Z,95913.00
2018-11-23T21:33:39.498Z,95909.98
2018-11-23T21:36:05.835Z,95908.49
2018-11-23T21:38:32.268Z,95909.33
2018-11-23T21:40:58.726Z,95911.44
2018-11-23T21:43:25.064Z,95909.46
2018-11-23T21:45:51.399Z,95911.34
2018-11-23T21:48:17.781Z,95906.75
2018-11-23T21:50:44.110Z,95905.54
2018-11-23T21:53:10.490Z,95904.33
2018-11-23T21:55:36.811Z,95900.92
2018-11-23T21:58:03.145Z,95899.70
2018-11-23T22:00:29.470Z,95901.75
2018-11-23T22:02:55.811Z,95906.97
2018-11-23T22:05:22.149Z,95909.05
2018-11-23T22:07:48.482Z,95907.69
2018-11-23T22:10:14.815Z,95905.57
2018-11-23T22:12:41.236Z,95899.15
2018-11-23T22:15:07.628Z,95903.28
2018-11-23T22:17:33.960Z,95904.28
2018-11-23T22:20:00.288Z,95901.81
2018-11-23T22:22:26.619Z,95902.17
2018-11-23T22:24:52.975Z,95894.25
2018-11-23T22:27:19.335Z,95903.34
2018-11-23T22:29:45.682Z,95895.53
2018-11-23T22:32:12.060Z,95890.50
2018-11-23T22:34:38.387Z,95896.37
2018-11-23T22:37:04.772Z,95889.67
2018-11-23T22:39:31.138Z,95891.57
2018-11-23T22:41:57.593Z,95888.72
2018-11-23T22:44:23.971Z,95889.22
2018-11-23T22:46:50.414Z,95889.95
2018-11-23T22:49:16.702Z,95885.44
2018-11-23T22:51:43.045Z,95887.66
2018-11-23T22:54:09.370Z,95893.86
2018-11-23T22:56:35.699Z,95890.73
2018-11-23T22:59:02.076Z,95900.66
2018-11-23T23:01:28.410Z,95892.13
2018-11-23T23:03:54.775Z,95891.36
2018-11-23T23:06:21.105Z,95897.33
2018-11-23T23:08:47.424Z,95898.99
2018-11-23T23:11:13.773Z,95896.21
2018-11-23T23:13:40.109Z,95895.77
2018-11-23T23:16:06.465Z,95897.95
2018-11-23T23:18:32.801Z,95896.48
2018-11-23T23:20:59.184Z,95897.88
2018-11-23T23:23:25.578Z,95898.26
2018-11-23T23:25:51.966Z,95894.20
2018-11-23T23:28:18.291Z,95895.36
2018-11-23T23:30:44.620Z,95892.80
2018-11-23T23:33:10.958Z,95896.48
2018-11-23T23:35:37.390Z,95893.08
2018-11-23T23:38:03.722Z,95892.70
2018-11-23T23:40:30.050Z,95894.88
2018-11-23T23:42:56.424Z,95899.00
2018-11-23T23:45:22.758Z,95898.06
2018-11-23T23:47:49.117Z,95898.83
2018-11-23T23:50:15.436Z,95901.47
2018-11-23T23:52:41.818Z,95896.33
2018-11-23T23:55:08.165Z,95898.72
2018-11-23T23:57:34.529Z,95898.33
